createdAt,value
2022-10-18T00:01:58.413Z,39.40
2022-10-18T00:04:33.777Z,34.40
2022-10-18T00:07:04.155Z,48.78
2022-10-18T00:09:30.987Z,40.22
2022-10-18T00:11:57.808Z,42.50
2022-10-18T00:14:24.760Z,40.10
2022-10-18T00:17:35.160Z,38.03
2022-10-18T00:20:04.384Z,40.97
2022-10-18T00:22:31.756Z,36.65
2022-10-18T00:24:58.669Z,41.78
2022-10-18T00:27:25.957Z,39.63
2022-10-18T00:29:53.505Z,43.85
2022-10-18T00:32:22.223Z,39.50
2022-10-18T00:34:49.071Z,43.42
2022-10-18T00:37:21.958Z,42.60
2022-10-18T00:39:48.611Z,42.30
2022-10-18T00:42:32.284Z,43.05
2022-10-18T00:45:15.313Z,40.75
2022-10-18T00:47:45.830Z,41.03
2022-10-18T00:50:17.442Z,42.30
2022-10-18T00:52:52.501Z,40.38
2022-10-18T00:55:22.679Z,41.15
2022-10-18T00:57:52.615Z,40.30
2022-10-18T01:00:19.692Z,43.20
2022-10-18T01:02:47.515Z,45.95
2022-10-18T01:05:16.467Z,37.22
2022-10-18T01:08:06.338Z,38.80
2022-10-18T01:10:49.997Z,49.38
2022-10-18T01:14:11.132Z,43.47
2022-10-18T01:16:57.745Z,49.97
2022-10-18T01:19:43.223Z,39.95
2022-10-18T01:22:21.944Z,44.42
2022-10-18T01:25:03.938Z,45.92
2022-10-18T01:27:41.707Z,42.58
2022-10-18T01:30:44.580Z,39.67
2022-10-18T01:33:15.673Z,46.63
2022-10-18T01:35:49.351Z,47.22
2022-10-18T01:38:19.072Z,45.53
2022-10-18T01:40:49.677Z,45.95
2022-10-18T01:43:18.562Z,45.50
2022-10-18T01:45:46.662Z,46.15
2022-10-18T01:48:17.552Z,50.00
2022-10-18T01:50:44.723Z,50.88
2022-10-18T01:53:35.648Z,43.47
2022-10-18T01:56:02.456Z,45.08
2022-10-18T01:58:37.458Z,47.22
2022-10-18T02:01:20.763Z,43.42
2022-10-18T02:03:55.434Z,50.35
2022-10-18T02:06:29.400Z,46.10
2022-10-18T02:09:16.140Z,38.70
2022-10-18T02:11:45.085Z,46.40
2022-10-18T02:14:14.225Z,49.17
2022-10-18T02:16:54.727Z,45.05
2022-10-18T02:19:38.993Z,46.63
2022-10-18T02:22:09.136Z,45.47
2022-10-18T02:24:39.562Z,44.25
2022-10-18T02:27:09.017Z,42.72
2022-10-18T02:29:37.956Z,44.53
2022-10-18T02:32:26.469Z,46.95
2022-10-18T02:35:16.824Z,48.83
2022-10-18T02:37:46.952Z,42.05
2022-10-18T02:40:14.332Z,45.80
2022-10-18T02:42:55.187Z,46.05
2022-10-18T02:45:22.323Z,42.10
2022-10-18T02:47:49.224Z,45.60
2022-10-18T02:50:16.055Z,44.20
2022-10-18T02:52:42.954Z,47.60
2022-10-18T02:55:10.929Z,46.20
2022-10-18T02:57:38.013Z,38.75
2022-10-18T03:00:06.221Z,48.50
2022-10-18T03:02:38.316Z,43.95
2022-10-18T03:05:08.222Z,45.70
2022-10-18T03:07:35.253Z,45.33
2022-10-18T03:10:02.240Z,42.13
2022-10-18T03:12:31.581Z,41.47
2022-10-18T03:15:01.533Z,42.33
2022-10-18T03:17:34.143Z,49.15
2022-10-18T03:20:01.246Z,45.33
2022-10-18T03:24:57.829Z,47.60
2022-10-18T03:27:24.672Z,43.10
2022-10-18T03:29:51.654Z,49.33
2022-10-18T03:32:19.561Z,46.17
2022-10-18T03:34:46.560Z,46.75
2022-10-18T03:37:13.269Z,47.13
2022-10-18T03:39:39.837Z,49.50
2022-10-18T03:42:06.533Z,45.70
2022-10-18T03:44:33.090Z,44.15
2022-10-18T03:46:59.669Z,42.88
2022-10-18T03:49:26.441Z,51.58
2022-10-18T03:51:53.040Z,45.42
2022-10-18T03:54:19.930Z,42.50
2022-10-18T03:56:46.786Z,45.15
2022-10-18T03:59:13.749Z,46.83
2022-10-18T04:01:40.353Z,47.67
2022-10-18T04:04:06.976Z,46.40
2022-10-18T04:06:33.582Z,45.80
2022-10-18T04:09:00.358Z,47.55
2022-10-18T04:11:27.065Z,49.10
2022-10-18T04:13:56.863Z,51.67
2022-10-18T04:16:23.534Z,45.72
2022-10-18T04:18:50.233Z,49.38
2022-10-18T04:21:20.130Z,49.75
2022-10-18T04:23:50.807Z,49.53
2022-10-18T04:26:17.670Z,49.83
2022-10-18T04:28:44.660Z,46.83
2022-10-18T04:31:12.139Z,45.90
2022-10-18T04:33:42.290Z,45.85
2022-10-18T04:36:12.132Z,45.53
2022-10-18T04:38:38.952Z,49.50
2022-10-18T04:41:05.631Z,47.35
2022-10-18T04:43:32.865Z,49.80
2022-10-18T04:45:59.593Z,50.33
2022-10-18T04:48:27.010Z,48.42
2022-10-18T04:50:53.851Z,46.03
2022-10-18T04:53:20.667Z,43.03
2022-10-18T04:55:51.104Z,52.08
2022-10-18T04:58:18.927Z,49.85
2022-10-18T05:00:49.477Z,46.05
2022-10-18T05:03:19.203Z,46.47
2022-10-18T05:06:02.717Z,55.30
2022-10-18T05:08:30.826Z,51.38
2022-10-18T05:10:57.868Z,51.10
2022-10-18T05:13:25.092Z,52.08
2022-10-18T05:15:53.891Z,65.60
2022-10-18T05:18:20.576Z,53.63
2022-10-18T05:20:47.535Z,51.53
2022-10-18T05:23:16.195Z,44.90
2022-10-18T05:25:43.648Z,47.17
2022-10-18T05:28:15.683Z,47.08
2022-10-18T05:30:54.402Z,48.17
2022-10-18T05:33:23.609Z,50.22
2022-10-18T05:35:52.146Z,46.80
2022-10-18T05:38:18.735Z,45.13
2022-10-18T05:40:45.418Z,47.88
2022-10-18T05:43:11.985Z,44.83
2022-10-18T05:45:38.916Z,46.17
2022-10-18T05:48:07.659Z,53.72
2022-10-18T05:50:40.393Z,44.08
2022-10-18T05:53:12.332Z,50.13
2022-10-18T05:55:45.156Z,47.22
2022-10-18T05:58:14.447Z,43.05
2022-10-18T06:00:43.837Z,44.08
2022-10-18T06:03:11.134Z,45.75
2022-10-18T06:08:07.991Z,41.95
2022-10-18T06:10:40.401Z,42.72
2022-10-18T06:13:07.103Z,44.72
2022-10-18T06:15:33.865Z,48.53
2022-10-18T06:18:00.810Z,51.30
2022-10-18T06:20:27.543Z,45.10
2022-10-18T06:22:55.804Z,47.28
2022-10-18T06:25:22.471Z,45.75
2022-10-18T06:27:51.428Z,50.53
2022-10-18T06:30:21.291Z,48.05
2022-10-18T06:32:54.014Z,47.55
2022-10-18T06:35:23.576Z,41.70
2022-10-18T06:37:50.233Z,46.42
2022-10-18T06:40:17.146Z,46.58
2022-10-18T06:42:55.189Z,46.55
2022-10-18T06:45:28.887Z,45.70
2022-10-18T06:47:55.446Z,49.03
2022-10-18T06:50:22.121Z,49.53
2022-10-18T06:52:55.449Z,46.53
2022-10-18T06:55:22.301Z,49.97
2022-10-18T06:57:49.105Z,44.45
2022-10-18T07:00:16.112Z,55.55
2022-10-18T07:02:42.789Z,49.08
2022-10-18T07:05:10.465Z,46.33
2022-10-18T07:07:37.966Z,61.33
2022-10-18T07:10:05.466Z,48.55
2022-10-18T07:12:35.581Z,48.10
2022-10-18T07:15:08.254Z,55.13
2022-10-18T07:17:36.210Z,55.33
2022-10-18T07:20:07.089Z,47.08
2022-10-18T07:22:34.358Z,56.80
2022-10-18T07:25:03.781Z,62.47
2022-10-18T07:27:31.137Z,49.88
2022-10-18T07:30:01.556Z,53.78
2022-10-18T07:32:28.927Z,65.70
2022-10-18T07:34:56.386Z,56.97
2022-10-18T07:37:26.621Z,60.97
2022-10-18T07:39:56.719Z,57.95
2022-10-18T07:42:23.669Z,61.42
2022-10-18T07:44:51.689Z,68.22
2022-10-18T07:47:22.332Z,67.18
2022-10-18T07:49:49.588Z,65.55
2022-10-18T07:52:16.380Z,60.67
2022-10-18T07:54:45.823Z,62.03
2022-10-18T07:57:12.605Z,67.75
2022-10-18T07:59:39.613Z,58.22
2022-10-18T08:02:06.942Z,66.47
2022-10-18T08:04:35.031Z,64.70
2022-10-18T08:07:02.820Z,58.10
2022-10-18T08:09:29.662Z,64.25
2022-10-18T08:11:56.542Z,64.88
2022-10-18T08:14:23.854Z,55.33
2022-10-18T08:16:50.527Z,61.33
2022-10-18T08:19:17.367Z,58.70
2022-10-18T08:21:44.286Z,63.10
2022-10-18T08:24:13.884Z,63.13
2022-10-18T08:26:43.398Z,56.97
2022-10-18T08:29:22.495Z,65.00
2022-10-18T08:31:51.297Z,62.58
2022-10-18T08:34:21.188Z,62.97
2022-10-18T08:36:47.941Z,62.40
2022-10-18T08:39:16.551Z,63.83
2022-10-18T08:41:56.548Z,62.05
2022-10-18T08:44:26.931Z,65.53
2022-10-18T08:47:04.272Z,63.83
2022-10-18T08:49:56.492Z,63.92
2022-10-18T08:52:26.666Z,78.30
2022-10-18T08:54:58.290Z,62.03
2022-10-18T08:59:52.085Z,61.47
2022-10-18T09:02:51.003Z,52.65
2022-10-18T09:05:44.702Z,55.35
2022-10-18T09:08:30.228Z,59.15
2022-10-18T09:11:07.365Z,58.88
2022-10-18T09:13:53.081Z,53.63
2022-10-18T09:16:58.097Z,61.75
2022-10-18T09:19:44.976Z,58.80
2022-10-18T09:22:19.258Z,55.97
2022-10-18T09:25:35.844Z,51.58
2022-10-18T09:28:25.580Z,57.90
2022-10-18T09:31:11.341Z,53.70
2022-10-18T09:33:56.551Z,59.13
2022-10-18T09:36:27.100Z,69.10
2022-10-18T09:39:01.875Z,63.83
2022-10-18T09:41:41.314Z,62.28
2022-10-18T09:44:17.995Z,62.83
2022-10-18T09:46:52.612Z,70.10
2022-10-18T09:49:38.366Z,66.13
2022-10-18T09:52:09.320Z,63.22
2022-10-18T09:54:57.802Z,71.80
2022-10-18T09:57:28.588Z,72.45
2022-10-18T09:59:57.929Z,63.38
2022-10-18T10:02:24.691Z,66.70
2022-10-18T10:04:55.777Z,68.15
2022-10-18T10:07:35.145Z,68.95
2022-10-18T10:10:14.254Z,67.93
2022-10-18T10:12:46.365Z,67.13
2022-10-18T10:15:28.298Z,71.68
2022-10-18T10:18:02.903Z,70.28
2022-10-18T10:23:16.632Z,72.70
2022-10-18T10:25:43.651Z,73.35
2022-10-18T10:28:16.894Z,79.43
2022-10-18T10:30:43.623Z,77.22
2022-10-18T10:33:36.401Z,74.03
2022-10-18T10:36:07.270Z,87.88
2022-10-18T10:38:34.343Z,88.13
2022-10-18T10:41:01.253Z,86.78
2022-10-18T10:43:40.097Z,94.47
2022-10-18T10:46:20.429Z,72.43
2022-10-18T10:48:57.229Z,82.53
2022-10-18T10:51:33.002Z,78.65
2022-10-18T10:54:15.172Z,74.85
2022-10-18T10:57:02.906Z,84.15
2022-10-18T10:59:48.653Z,85.30
2022-10-18T11:02:18.259Z,93.82
2022-10-18T11:04:48.687Z,85.00
2022-10-18T11:07:39.725Z,76.82
2022-10-18T11:10:11.251Z,88.32
2022-10-18T11:15:31.652Z,91.65
2022-10-18T11:18:14.731Z,71.38
2022-10-18T11:20:43.261Z,82.22
2022-10-18T11:23:20.341Z,79.68
2022-10-18T11:26:12.147Z,74.47
2022-10-18T11:29:00.028Z,89.60
2022-10-18T11:32:04.438Z,85.85
2022-10-18T11:35:30.551Z,84.00
2022-10-18T11:38:52.970Z,95.38
2022-10-18T11:41:31.533Z,94.72
2022-10-18T11:44:03.107Z,89.10
2022-10-18T11:46:57.367Z,89.90
2022-10-18T11:49:29.986Z,82.60
2022-10-18T11:52:14.626Z,91.72
2022-10-18T11:54:59.999Z,86.53
2022-10-18T11:57:43.427Z,101.18
2022-10-18T12:00:44.968Z,86.95
2022-10-18T12:03:22.355Z,103.20
2022-10-18T12:05:51.381Z,100.78
2022-10-18T12:08:23.998Z,100.93
2022-10-18T12:11:04.947Z,86.18
2022-10-18T12:13:45.371Z,101.32
2022-10-18T12:16:15.049Z,85.25
2022-10-18T12:18:55.762Z,93.53
2022-10-18T12:21:29.713Z,89.37
2022-10-18T12:24:11.162Z,94.05
2022-10-18T12:26:39.817Z,97.72
2022-10-18T12:29:22.361Z,99.97
2022-10-18T12:31:57.605Z,109.63
2022-10-18T12:34:36.290Z,96.32
2022-10-18T12:37:35.178Z,87.25
2022-10-18T12:40:25.875Z,94.65
2022-10-18T12:42:53.755Z,88.65
2022-10-18T12:45:35.749Z,97.18
2022-10-18T12:48:06.689Z,91.78
2022-10-18T12:50:42.973Z,90.32
2022-10-18T12:53:09.763Z,90.07
2022-10-18T12:56:01.834Z,94.85
2022-10-18T12:58:31.757Z,96.15
2022-10-18T13:01:02.407Z,91.50
2022-10-18T13:03:48.311Z,84.55
2022-10-18T13:06:22.164Z,80.00
2022-10-18T13:09:11.594Z,79.05
2022-10-18T13:11:38.645Z,87.93
2022-10-18T13:14:17.623Z,78.43
2022-10-18T13:17:29.988Z,80.75
2022-10-18T13:20:26.420Z,81.00
2022-10-18T13:22:59.567Z,91.28
2022-10-18T13:25:49.608Z,78.88
2022-10-18T13:28:39.434Z,80.28
2022-10-18T13:31:35.407Z,88.10
2022-10-18T13:34:25.227Z,80.78
2022-10-18T13:37:10.756Z,81.10
2022-10-18T13:39:44.397Z,80.93
2022-10-18T13:42:33.154Z,80.05
2022-10-18T13:45:32.691Z,95.65
2022-10-18T13:48:55.667Z,93.63
2022-10-18T13:51:41.680Z,79.88
2022-10-18T13:54:40.043Z,83.28
2022-10-18T13:57:36.262Z,91.00
2022-10-18T14:00:02.989Z,78.88
2022-10-18T14:02:58.701Z,76.75
2022-10-18T14:06:04.879Z,62.05
2022-10-18T14:08:41.769Z,72.82
2022-10-18T14:11:30.098Z,79.43
2022-10-18T14:14:39.180Z,71.43
2022-10-18T14:17:37.122Z,67.50
2022-10-18T14:20:29.945Z,66.05
2022-10-18T14:23:00.226Z,82.00
2022-10-18T14:25:34.033Z,69.95
2022-10-18T14:28:08.854Z,64.38
2022-10-18T14:30:58.104Z,65.72
2022-10-18T14:33:34.484Z,56.00
2022-10-18T14:36:15.800Z,49.70
2022-10-18T14:41:20.917Z,63.80
2022-10-18T14:43:48.520Z,55.28
2022-10-18T14:46:31.910Z,62.60
2022-10-18T14:49:01.132Z,72.57
2022-10-18T14:51:33.237Z,73.90
2022-10-18T14:54:01.559Z,73.32
2022-10-18T14:56:36.763Z,58.72
2022-10-18T14:59:10.866Z,60.35
2022-10-18T15:01:39.813Z,60.20
2022-10-18T15:04:12.136Z,58.63
2022-10-18T15:06:44.190Z,59.42
2022-10-18T15:09:13.147Z,56.90
2022-10-18T15:11:47.404Z,67.15
2022-10-18T15:14:19.127Z,64.32
2022-10-18T15:16:47.438Z,57.45
2022-10-18T15:19:14.138Z,55.88
2022-10-18T15:22:31.394Z,53.65
2022-10-18T15:25:16.645Z,65.00
2022-10-18T15:27:46.504Z,51.90
2022-10-18T15:30:36.262Z,51.70
2022-10-18T15:33:09.846Z,61.75
2022-10-18T15:35:38.865Z,59.47
2022-10-18T15:38:27.792Z,55.67
2022-10-18T15:40:57.080Z,49.00
2022-10-18T15:43:26.787Z,48.58
2022-10-18T15:45:58.835Z,50.95
2022-10-18T15:48:33.725Z,52.28
2022-10-18T15:51:04.775Z,49.60
2022-10-18T15:53:44.053Z,52.80
2022-10-18T15:56:30.866Z,47.03
2022-10-18T15:59:04.269Z,48.25
2022-10-18T16:01:43.200Z,48.67
2022-10-18T16:04:31.164Z,47.83
2022-10-18T16:07:01.378Z,54.08
2022-10-18T16:09:34.312Z,64.50
2022-10-18T16:12:04.337Z,42.47
2022-10-18T16:14:31.864Z,48.28
2022-10-18T16:17:01.581Z,46.25
2022-10-18T16:19:32.677Z,42.53
2022-10-18T16:22:06.599Z,48.75
2022-10-18T16:24:33.772Z,43.00
2022-10-18T16:27:01.248Z,44.00
2022-10-18T16:29:34.676Z,56.88
2022-10-18T16:32:07.899Z,39.85
2022-10-18T16:34:37.621Z,41.45
2022-10-18T16:37:04.167Z,40.65
2022-10-18T16:39:35.093Z,40.70
2022-10-18T16:42:02.056Z,50.80
2022-10-18T16:44:28.932Z,47.85
2022-10-18T16:46:56.873Z,41.22
2022-10-18T16:49:26.446Z,50.65
2022-10-18T16:51:55.099Z,48.80
2022-10-18T16:54:23.900Z,40.92
2022-10-18T16:56:51.884Z,41.35
2022-10-18T16:59:26.555Z,52.33
2022-10-18T17:02:06.499Z,47.50
2022-10-18T17:04:34.481Z,45.40
2022-10-18T17:07:03.674Z,45.65
2022-10-18T17:09:35.393Z,44.10
2022-10-18T17:12:07.370Z,50.33
2022-10-18T17:14:37.237Z,48.22
2022-10-18T17:17:03.931Z,42.72
2022-10-18T17:19:32.836Z,46.35
2022-10-18T17:22:02.691Z,45.17
2022-10-18T17:24:29.691Z,49.90
2022-10-18T17:26:56.471Z,49.50
2022-10-18T17:29:23.070Z,49.20
2022-10-18T17:31:49.726Z,47.70
2022-10-18T17:34:26.877Z,40.97
2022-10-18T17:36:54.372Z,42.80
2022-10-18T17:39:21.031Z,46.85
2022-10-18T17:41:48.062Z,40.28
2022-10-18T17:44:15.377Z,48.42
2022-10-18T17:46:44.539Z,42.90
2022-10-18T17:49:16.025Z,43.60
2022-10-18T17:51:45.554Z,51.05
2022-10-18T17:54:12.852Z,47.33
2022-10-18T17:56:40.864Z,50.30
2022-10-18T17:59:13.549Z,48.25
2022-10-18T18:01:41.190Z,50.88
2022-10-18T18:04:10.878Z,47.90
2022-10-18T18:06:39.283Z,47.03
2022-10-18T18:09:11.350Z,44.67
2022-10-18T18:11:41.199Z,40.58
2022-10-18T18:14:09.178Z,44.42
2022-10-18T18:16:41.453Z,47.28
2022-10-18T18:19:13.795Z,46.92
2022-10-18T18:21:41.700Z,44.30
2022-10-18T18:24:15.164Z,41.10
2022-10-18T18:26:43.740Z,50.80
2022-10-18T18:29:13.152Z,49.78
2022-10-18T18:31:43.691Z,46.42
2022-10-18T18:34:10.944Z,46.47
2022-10-18T18:36:38.589Z,45.45
2022-10-18T18:39:10.378Z,51.40
2022-10-18T18:41:38.677Z,42.78
2022-10-18T18:44:07.002Z,48.85
2022-10-18T18:46:38.991Z,49.13
2022-10-18T18:49:08.881Z,51.17
2022-10-18T18:51:40.730Z,47.50
2022-10-18T18:54:12.419Z,49.58
2022-10-18T18:56:41.768Z,58.15
2022-10-18T18:59:08.828Z,55.47
2022-10-18T19:01:38.202Z,51.95
2022-10-18T19:04:06.687Z,48.20
2022-10-18T19:06:39.816Z,47.65
2022-10-18T19:09:13.054Z,55.88
2022-10-18T19:11:40.352Z,45.33
2022-10-18T19:14:08.761Z,49.42
2022-10-18T19:16:40.998Z,45.08
2022-10-18T19:19:16.629Z,47.05
2022-10-18T19:21:46.905Z,48.97
2022-10-18T19:24:14.502Z,47.17
2022-10-18T19:26:48.976Z,50.17
2022-10-18T19:29:19.067Z,50.08
2022-10-18T19:31:46.321Z,48.22
2022-10-18T19:34:16.241Z,53.05
2022-10-18T19:36:48.430Z,51.63
2022-10-18T19:39:24.576Z,48.95
2022-10-18T19:41:55.365Z,48.05
2022-10-18T19:44:27.446Z,54.65
2022-10-18T19:46:55.475Z,54.78
2022-10-18T19:49:24.444Z,48.92
2022-10-18T19:51:57.619Z,51.97
2022-10-18T19:54:27.177Z,48.40
2022-10-18T19:56:56.837Z,55.47
2022-10-18T19:59:27.054Z,50.25
2022-10-18T20:01:54.229Z,49.55
2022-10-18T20:04:22.222Z,47.20
2022-10-18T20:06:50.217Z,52.15
2022-10-18T20:09:20.625Z,55.92
2022-10-18T20:11:51.872Z,50.38
2022-10-18T20:14:19.231Z,54.67
2022-10-18T20:16:50.075Z,55.35
2022-10-18T20:19:17.454Z,54.03
2022-10-18T20:21:44.946Z,57.63
2022-10-18T20:24:15.491Z,48.92
2022-10-18T20:26:43.849Z,57.80
2022-10-18T20:29:11.213Z,53.10
2022-10-18T20:31:39.728Z,61.08
2022-10-18T20:34:11.665Z,49.13
2022-10-18T20:36:39.413Z,64.90
2022-10-18T20:39:08.030Z,56.50
2022-10-18T20:41:39.957Z,58.90
2022-10-18T20:44:10.800Z,63.42
2022-10-18T20:46:38.848Z,68.50
2022-10-18T20:49:07.716Z,51.67
2022-10-18T20:51:35.196Z,59.50
2022-10-18T20:56:39.022Z,55.47
2022-10-18T20:59:10.209Z,53.40
2022-10-18T21:01:45.328Z,59.75
2022-10-18T21:04:12.144Z,59.47
2022-10-18T21:06:41.513Z,52.17
2022-10-18T21:09:14.809Z,58.08
2022-10-18T21:11:48.216Z,62.28
2022-10-18T21:14:23.582Z,54.30
2022-10-18T21:16:51.989Z,55.35
2022-10-18T21:19:20.427Z,59.03
2022-10-18T21:21:50.584Z,56.38
2022-10-18T21:24:21.446Z,66.13
2022-10-18T21:26:49.202Z,57.15
2022-10-18T21:29:21.627Z,59.78
2022-10-18T21:31:49.401Z,58.80
2022-10-18T21:34:17.960Z,53.55
2022-10-18T21:36:47.786Z,56.22
2022-10-18T21:39:19.725Z,55.33
2022-10-18T21:41:53.452Z,71.15
2022-10-18T21:44:24.549Z,82.70
2022-10-18T21:46:56.396Z,69.32
2022-10-18T21:49:26.115Z,72.60
2022-10-18T21:52:03.580Z,73.55
2022-10-18T21:54:32.464Z,61.88
2022-10-18T21:57:01.667Z,65.47
2022-10-18T21:59:34.393Z,52.22
2022-10-18T22:02:04.412Z,62.85
2022-10-18T22:04:36.195Z,58.35
2022-10-18T22:07:06.889Z,57.70
2022-10-18T22:09:41.814Z,59.07
2022-10-18T22:12:10.854Z,60.72
2022-10-18T22:14:42.250Z,57.38
2022-10-18T22:17:08.945Z,54.67
2022-10-18T22:19:42.826Z,54.08
2022-10-18T22:22:13.269Z,59.90
2022-10-18T22:24:40.039Z,52.67
2022-10-18T22:27:09.315Z,50.28
2022-10-18T22:29:37.259Z,54.85
2022-10-18T22:32:04.206Z,56.83
2022-10-18T22:34:31.070Z,58.67
2022-10-18T22:36:57.677Z,53.10
2022-10-18T22:39:24.699Z,54.33
2022-10-18T22:41:56.025Z,46.55
2022-10-18T22:44:22.955Z,57.17
2022-10-18T22:46:49.747Z,53.50
2022-10-18T22:49:20.275Z,51.80
2022-10-18T22:51:47.122Z,48.38
2022-10-18T22:54:15.799Z,51.40
2022-10-18T22:56:45.715Z,49.65
2022-10-18T22:59:12.427Z,48.80
2022-10-18T23:01:39.381Z,47.30
2022-10-18T23:04:06.365Z,50.20
2022-10-18T23:06:35.611Z,49.72
2022-10-18T23:09:06.240Z,51.45
2022-10-18T23:11:35.582Z,56.33
2022-10-18T23:14:06.862Z,51.10
2022-10-18T23:16:34.340Z,52.72
2022-10-18T23:19:01.109Z,57.88
2022-10-18T23:21:28.847Z,53.17
2022-10-18T23:24:00.921Z,48.72
2022-10-18T23:26:28.163Z,49.83
2022-10-18T23:28:58.134Z,47.65
2022-10-18T23:31:27.396Z,51.42
2022-10-18T23:33:59.176Z,45.70
2022-10-18T23:36:28.985Z,40.05
2022-10-18T23:38:56.233Z,39.67
2022-10-18T23:41:24.102Z,49.50
2022-10-18T23:43:51.270Z,41.13
2022-10-18T23:46:19.087Z,40.60
2022-10-18T23:48:48.367Z,44.13
2022-10-18T23:51:15.626Z,34.22
2022-10-18T23:53:42.561Z,40.40
2022-10-18T23:56:15.974Z,40.75
2022-10-18T23:58:46.423Z,36.03
